Time;durP1;ratioP1;P1;durP2;ratioP2;P2;SDS_P1;SDS_P2;PMS_P1;PMS_P2;Temp;Humidity;BMP_temperature;BMP_pressure;BME280_temperature;BME280_humidity;BME280_pressure;Samples;Min_cycle;Max_cycle;Signal;HPM_P1;HPM_P2
2022/08/03 00:01:02;;;;;;;11.85;2.90;;;19.40;99.90;;;;;;5064496;28;20506;-67
2022/08/03 00:03:28;;;;;;;10.18;2.60;;;19.50;99.90;;;;;;5066489;28;20086;-68
2022/08/03 00:05:53;;;;;;;10.25;2.47;;;19.50;99.90;;;;;;5067263;28;20071;-67
2022/08/03 00:08:19;;;;;;;9.93;2.90;;;19.40;99.90;;;;;;5066771;28;20070;-68
2022/08/03 00:10:45;;;;;;;7.55;2.67;;;19.40;99.90;;;;;;5062340;28;20037;-67
2022/08/03 00:13:12;;;;;;;9.65;2.55;;;19.30;99.90;;;;;;5062585;28;20045;-68
2022/08/03 00:15:39;;;;;;;7.10;2.80;;;19.30;99.90;;;;;;5061056;28;20469;-68
2022/08/03 00:18:05;;;;;;;8.20;2.40;;;19.30;99.90;;;;;;5054954;28;20058;-68
2022/08/03 00:20:31;;;;;;;8.88;2.55;;;19.30;99.90;;;;;;5062876;28;20346;-68
2022/08/03 00:22:57;;;;;;;10.18;2.97;;;19.30;99.90;;;;;;5060941;28;20041;-68
2022/08/03 00:25:22;;;;;;;11.07;2.40;;;19.30;99.90;;;;;;5066298;28;20131;-68
2022/08/03 00:27:48;;;;;;;8.05;3.05;;;19.20;99.90;;;;;;5065716;28;20636;-68
2022/08/03 00:30:14;;;;;;;8.02;2.42;;;19.20;99.90;;;;;;5066659;28;20041;-68
2022/08/03 00:32:39;;;;;;;13.95;2.63;;;19.10;99.90;;;;;;5046022;28;20037;-68
2022/08/03 00:35:05;;;;;;;9.85;3.00;;;19.10;99.90;;;;;;5066541;28;20041;-67
2022/08/03 00:37:31;;;;;;;9.27;3.00;;;19.10;99.90;;;;;;5066585;28;20062;-68
2022/08/03 00:39:56;;;;;;;8.50;2.85;;;19.00;99.90;;;;;;5063305;28;20041;-68
2022/08/03 00:42:22;;;;;;;15.82;3.65;;;19.00;99.90;;;;;;5067813;28;20033;-68
2022/08/03 00:44:48;;;;;;;8.38;3.40;;;19.00;99.90;;;;;;5068981;28;20041;-67
2022/08/03 00:47:13;;;;;;;8.93;3.03;;;19.00;99.90;;;;;;5060279;28;20321;-67
2022/08/03 00:49:39;;;;;;;10.02;3.67;;;18.90;99.90;;;;;;5061308;28;20040;-67
2022/08/03 00:52:08;;;;;;;13.60;3.88;;;18.90;99.90;;;;;;5075770;28;20047;-67
2022/08/03 00:54:36;;;;;;;13.23;3.33;;;18.90;99.90;;;;;;5064003;28;20287;-68
2022/08/03 00:57:02;;;;;;;12.05;3.30;;;18.80;99.90;;;;;;5069874;28;20144;-68
2022/08/03 00:59:29;;;;;;;11.73;3.20;;;18.70;99.90;;;;;;5066425;28;20131;-68
2022/08/03 01:01:55;;;;;;;12.07;3.30;;;18.80;99.90;;;;;;5072772;28;20025;-68
2022/08/03 01:04:20;;;;;;;10.23;3.25;;;18.80;99.90;;;;;;5066968;28;20040;-68
2022/08/03 01:06:56;;;;;;;11.60;3.33;;;18.70;99.90;;;;;;5065527;28;20044;-68
2022/08/03 01:09:29;;;;;;;8.73;3.42;;;18.70;99.90;;;;;;5070379;28;20067;-68
2022/08/03 01:12:15;;;;;;;9.00;3.30;;;18.70;99.90;;;;;;5063761;28;20040;-68
2022/08/03 01:14:54;;;;;;;8.05;3.60;;;18.70;99.90;;;;;;5063453;28;20104;-67
2022/08/03 01:17:42;;;;;;;10.93;3.25;;;18.60;99.90;;;;;;5066094;28;20040;-68
2022/08/03 01:20:13;;;;;;;13.05;3.45;;;18.60;99.90;;;;;;5065493;28;20037;-68
2022/08/03 01:22:59;;;;;;;13.13;3.92;;;18.60;99.90;;;;;;5070036;28;20044;-68
2022/08/03 01:25:50;;;;;;;12.05;3.55;;;18.50;99.90;;;;;;5066165;28;20044;-68
2022/08/03 01:28:36;;;;;;;13.25;4.57;;;18.60;99.90;;;;;;5073062;28;20071;-68
2022/08/03 01:31:09;;;;;;;14.43;3.65;;;18.50;99.90;;;;;;5077150;28;20147;-68
2022/08/03 01:33:42;;;;;;;12.85;3.60;;;18.60;99.90;;;;;;5063845;28;20068;-68
2022/08/03 01:36:20;;;;;;;13.30;3.40;;;18.60;99.90;;;;;;5077651;28;20068;-68
2022/08/03 01:39:10;;;;;;;11.45;3.70;;;18.50;99.90;;;;;;5055958;28;20123;-68
2022/08/03 01:41:59;;;;;;;11.75;3.53;;;18.50;99.90;;;;;;5063728;28;20051;-67
2022/08/03 01:44:32;;;;;;;8.55;3.33;;;18.50;99.90;;;;;;5064471;28;20066;-68
2022/08/03 01:46:59;;;;;;;10.65;3.63;;;18.50;99.90;;;;;;5067230;28;20037;-68
2022/08/03 01:49:28;;;;;;;14.88;3.80;;;18.40;99.90;;;;;;5067495;28;20158;-68
2022/08/03 01:51:55;;;;;;;12.85;3.80;;;18.50;99.90;;;;;;5077492;28;20068;-68
2022/08/03 01:54:22;;;;;;;13.30;4.15;;;18.50;99.90;;;;;;5070381;28;20044;-68
2022/08/03 01:56:51;;;;;;;14.18;3.92;;;18.40;99.90;;;;;;5067747;28;20032;-68
2022/08/03 01:59:19;;;;;;;9.95;3.97;;;18.40;99.90;;;;;;5067617;28;20036;-68
2022/08/03 02:01:46;;;;;;;12.40;4.45;;;18.40;99.90;;;;;;5074813;28;20968;-68
2022/08/03 02:04:16;;;;;;;16.05;4.07;;;18.30;99.90;;;;;;5063597;28;20396;-68
2022/08/03 02:06:43;;;;;;;11.93;4.13;;;18.40;99.90;;;;;;5067033;28;20066;-68
2022/08/03 02:09:12;;;;;;;17.90;3.97;;;18.40;99.90;;;;;;5076275;28;20063;-68
2022/08/03 02:11:38;;;;;;;12.75;4.22;;;18.30;99.90;;;;;;5064210;28;20036;-68
2022/08/03 02:14:06;;;;;;;14.50;3.60;;;18.30;99.90;;;;;;5057818;28;20372;-68
2022/08/03 02:16:33;;;;;;;9.63;4.05;;;18.30;99.90;;;;;;5065186;28;20033;-68
2022/08/03 02:19:02;;;;;;;10.68;4.20;;;18.30;99.90;;;;;;5068326;28;20037;-68
2022/08/03 02:21:30;;;;;;;10.85;4.32;;;18.30;99.90;;;;;;5067696;28;20071;-68
2022/08/03 02:23:56;;;;;;;13.05;4.10;;;18.20;99.90;;;;;;5067163;28;20079;-68
2022/08/03 02:26:26;;;;;;;11.45;4.03;;;18.30;99.90;;;;;;5045898;28;20403;-68
2022/08/03 02:28:55;;;;;;;11.07;4.43;;;18.20;99.90;;;;;;5066342;28;20043;-68
2022/08/03 02:31:31;;;;;;;11.63;4.38;;;18.10;99.90;;;;;;5074941;28;20393;-68
2022/08/03 02:34:03;;;;;;;10.90;4.53;;;18.10;99.90;;;;;;5082842;28;20040;-68
2022/08/03 02:36:33;;;;;;;12.90;4.40;;;18.10;99.90;;;;;;5058793;28;20152;-68
2022/08/03 02:39:00;;;;;;;9.52;4.20;;;18.20;99.90;;;;;;5055821;28;20476;-68
2022/08/03 02:41:35;;;;;;;13.77;4.10;;;18.00;99.90;;;;;;5063312;28;20039;-68
2022/08/03 02:44:06;;;;;;;9.07;4.03;;;18.10;99.90;;;;;;5058931;28;20496;-68
2022/08/03 02:46:37;;;;;;;13.63;4.15;;;18.10;99.90;;;;;;5062055;28;20041;-68
2022/08/03 02:49:03;;;;;;;14.60;4.32;;;18.10;99.90;;;;;;5074964;28;20045;-68
2022/08/03 02:51:31;;;;;;;14.30;4.40;;;18.10;99.90;;;;;;5064115;28;20052;-68
2022/08/03 02:54:00;;;;;;;11.30;4.45;;;18.00;99.90;;;;;;5068989;28;20112;-68
2022/08/03 02:56:27;;;;;;;13.13;4.38;;;18.10;99.90;;;;;;5063015;28;20044;-69
2022/08/03 02:58:55;;;;;;;13.20;4.20;;;17.90;99.90;;;;;;5074110;28;20037;-68
2022/08/03 03:01:25;;;;;;;14.90;4.07;;;17.90;99.90;;;;;;5066688;28;20120;-68
2022/08/03 03:03:54;;;;;;;11.93;3.85;;;18.10;99.90;;;;;;5071905;28;20443;-68
2022/08/03 03:06:20;;;;;;;13.98;4.25;;;17.90;99.90;;;;;;5068062;28;21047;-68
2022/08/03 03:08:47;;;;;;;13.05;3.95;;;17.90;99.90;;;;;;5064489;28;20072;-68
2022/08/03 03:11:14;;;;;;;15.93;4.55;;;18.00;99.90;;;;;;5061675;28;20128;-67
2022/08/03 03:13:43;;;;;;;15.50;4.30;;;17.90;99.90;;;;;;5067676;28;20059;-68
2022/08/03 03:16:12;;;;;;;15.50;3.95;;;17.80;99.90;;;;;;5070337;28;20036;-68
2022/08/03 03:18:39;;;;;;;16.25;4.15;;;17.90;99.90;;;;;;5064828;28;20094;-69
2022/08/03 03:21:07;;;;;;;11.40;4.50;;;17.80;99.90;;;;;;5067360;28;20044;-68
2022/08/03 03:23:35;;;;;;;11.18;4.00;;;17.90;99.90;;;;;;5066701;28;20040;-69
2022/08/03 03:26:02;;;;;;;10.88;4.03;;;17.80;99.90;;;;;;5045548;28;20369;-69
2022/08/03 03:28:28;;;;;;;12.45;4.15;;;17.90;99.90;;;;;;5054919;28;20079;-68
2022/08/03 03:30:53;;;;;;;10.93;3.53;;;17.90;99.90;;;;;;5057018;28;20071;-69
2022/08/03 03:33:21;;;;;;;19.08;4.05;;;17.70;99.90;;;;;;5067063;28;20090;-68
2022/08/03 03:35:47;;;;;;;14.68;4.38;;;17.70;99.90;;;;;;5066648;28;20036;-69
2022/08/03 03:38:13;;;;;;;12.98;4.18;;;17.80;99.90;;;;;;5063458;28;20037;-68
2022/08/03 03:40:39;;;;;;;12.23;3.85;;;17.80;99.90;;;;;;5062893;28;20851;-68
2022/08/03 03:43:09;;;;;;;11.10;3.75;;;17.70;99.90;;;;;;5063809;28;20029;-69
2022/08/03 03:45:35;;;;;;;11.80;4.10;;;17.80;99.90;;;;;;5067369;28;20066;-69
2022/08/03 03:48:02;;;;;;;12.35;3.65;;;17.80;99.90;;;;;;5066750;28;20048;-69
2022/08/03 03:50:30;;;;;;;17.02;4.15;;;17.80;99.90;;;;;;5065916;28;20036;-68
2022/08/03 03:52:56;;;;;;;12.20;3.75;;;17.70;99.90;;;;;;5064399;28;20059;-69
2022/08/03 03:55:22;;;;;;;14.20;4.25;;;17.70;99.90;;;;;;5066971;28;20036;-69
2022/08/03 03:57:48;;;;;;;13.77;3.92;;;17.80;99.90;;;;;;5063467;28;20033;-68
2022/08/03 04:00:15;;;;;;;15.05;4.10;;;17.60;99.90;;;;;;5065128;28;20131;-69
2022/08/03 04:02:41;;;;;;;12.40;3.95;;;17.70;99.90;;;;;;5065977;28;20035;-69
2022/08/03 04:10:57;;;;;;;14.15;4.18;;;17.70;99.90;;;;;;5073962;28;20205;-69
2022/08/03 04:13:33;;;;;;;12.90;4.18;;;17.70;99.90;;;;;;5061525;28;20491;-69
2022/08/03 04:15:59;;;;;;;13.38;4.07;;;17.70;99.90;;;;;;5065986;28;20120;-68
2022/08/03 04:18:28;;;;;;;15.60;4.10;;;17.60;99.90;;;;;;5068575;28;20048;-68
2022/08/03 04:20:55;;;;;;;19.45;4.18;;;17.60;99.90;;;;;;5067084;28;20180;-68
2022/08/03 04:23:24;;;;;;;12.10;3.80;;;17.60;99.90;;;;;;5069110;28;20047;-68
2022/08/03 04:25:52;;;;;;;19.05;4.53;;;17.70;99.90;;;;;;5077275;28;20048;-68
2022/08/03 04:28:18;;;;;;;14.77;4.13;;;17.80;99.90;;;;;;5068305;28;20071;-68
2022/08/03 04:30:47;;;;;;;18.42;4.53;;;17.70;99.90;;;;;;5060305;28;20126;-69
2022/08/03 04:33:14;;;;;;;13.63;4.25;;;17.70;99.90;;;;;;5066799;28;20045;-68
2022/08/03 04:35:42;;;;;;;16.08;4.97;;;17.90;99.90;;;;;;5068873;28;20041;-68
2022/08/03 04:38:09;;;;;;;12.70;4.70;;;18.00;99.90;;;;;;5065038;28;20047;-68
2022/08/03 04:40:40;;;;;;;17.17;4.65;;;17.90;99.90;;;;;;5059189;28;20402;-68
2022/08/03 04:43:07;;;;;;;17.88;5.03;;;17.80;99.90;;;;;;5068789;28;20380;-68
2022/08/03 04:45:34;;;;;;;14.68;4.90;;;17.80;99.90;;;;;;5065646;28;20444;-68
2022/08/03 04:48:00;;;;;;;16.30;4.63;;;17.80;99.90;;;;;;5064048;28;20052;-68
2022/08/03 04:50:26;;;;;;;12.43;4.28;;;18.10;99.90;;;;;;5060649;28;20044;-68
2022/08/03 04:52:53;;;;;;;18.58;4.60;;;17.90;99.90;;;;;;5065918;28;20105;-68
2022/08/03 04:55:29;;;;;;;15.68;4.75;;;17.90;99.90;;;;;;5059321;28;20094;-68
2022/08/03 04:57:57;;;;;;;15.95;4.93;;;18.00;99.90;;;;;;5080835;28;20033;-67
2022/08/03 05:00:23;;;;;;;13.00;4.68;;;18.10;99.90;;;;;;5050214;28;20568;-67
2022/08/03 05:02:49;;;;;;;18.95;4.90;;;18.20;99.90;;;;;;5061646;28;20037;-68
2022/08/03 05:05:15;;;;;;;14.80;4.60;;;18.10;99.90;;;;;;5060201;28;20041;-67
2022/08/03 05:07:42;;;;;;;15.80;5.20;;;18.30;99.90;;;;;;5068291;28;20044;-67
2022/08/03 05:10:09;;;;;;;13.85;4.70;;;18.30;99.90;;;;;;5046308;28;20131;-68
2022/08/03 05:12:34;;;;;;;14.43;4.93;;;18.20;99.90;;;;;;5062529;28;20044;-67
2022/08/03 05:15:00;;;;;;;15.18;5.50;;;18.30;99.90;;;;;;5062410;28;20579;-68
2022/08/03 05:17:27;;;;;;;16.88;4.72;;;18.50;99.90;;;;;;5064394;28;20041;-68
2022/08/03 05:19:53;;;;;;;14.57;4.97;;;18.50;99.90;;;;;;5065673;28;20071;-68
2022/08/03 05:22:20;;;;;;;18.30;4.88;;;18.70;99.90;;;;;;5077861;28;20068;-68
2022/08/03 05:24:45;;;;;;;15.82;5.22;;;18.70;99.90;;;;;;5065785;28;20043;-67
2022/08/03 05:27:16;;;;;;;19.05;5.85;;;18.60;99.90;;;;;;5057040;28;20120;-67
2022/08/03 05:29:42;;;;;;;16.45;5.45;;;18.70;99.90;;;;;;5076842;28;20079;-67
2022/08/03 05:32:07;;;;;;;15.43;5.20;;;18.90;99.90;;;;;;5087879;28;20063;-67
2022/08/03 05:34:33;;;;;;;12.18;5.18;;;18.80;99.90;;;;;;5064212;28;20052;-68
2022/08/03 05:36:59;;;;;;;22.92;5.95;;;18.90;99.90;;;;;;5060399;28;20033;-67
2022/08/03 05:39:24;;;;;;;19.75;6.22;;;18.90;99.90;;;;;;5069454;28;20040;-67
2022/08/03 05:41:50;;;;;;;24.85;6.40;;;19.00;99.90;;;;;;5065144;28;20083;-67
2022/08/03 05:44:16;;;;;;;22.13;5.78;;;19.10;99.90;;;;;;5066015;28;20048;-67
2022/08/03 05:46:41;;;;;;;19.48;5.57;;;19.10;99.90;;;;;;5069114;28;20040;-67
2022/08/03 05:49:07;;;;;;;18.30;5.65;;;19.10;99.90;;;;;;5066384;28;20132;-67
2022/08/03 05:51:32;;;;;;;21.70;5.35;;;19.20;99.90;;;;;;5069754;28;20043;-67
2022/08/03 05:53:58;;;;;;;16.58;5.60;;;19.20;99.90;;;;;;5063374;28;20067;-67
2022/08/03 05:56:24;;;;;;;17.77;5.63;;;19.30;99.90;;;;;;5069471;28;20050;-66
2022/08/03 05:58:51;;;;;;;18.00;6.35;;;19.50;99.90;;;;;;5063404;28;20037;-66
2022/08/03 06:01:20;;;;;;;13.85;5.68;;;19.50;99.90;;;;;;5063418;28;20040;-67
2022/08/03 06:03:47;;;;;;;17.00;5.93;;;19.60;99.90;;;;;;5060712;28;20132;-67
2022/08/03 06:06:13;;;;;;;23.92;5.82;;;19.70;99.90;;;;;;5070071;28;20040;-67
2022/08/03 06:08:40;;;;;;;18.63;6.07;;;19.80;99.90;;;;;;5070721;28;20036;-66
2022/08/03 06:11:06;;;;;;;22.30;5.45;;;19.90;99.90;;;;;;5067757;28;20040;-67
2022/08/03 06:13:31;;;;;;;17.70;5.57;;;19.90;99.90;;;;;;5080612;28;20048;-67
2022/08/03 06:15:57;;;;;;;19.85;6.32;;;20.00;99.90;;;;;;5062203;28;20048;-66
2022/08/03 06:18:23;;;;;;;14.48;5.78;;;20.10;99.90;;;;;;5070795;28;20076;-67
2022/08/03 06:20:49;;;;;;;18.88;6.07;;;20.20;99.90;;;;;;5063609;28;20083;-67
2022/08/03 06:23:15;;;;;;;17.83;5.97;;;20.20;99.90;;;;;;5064959;28;20033;-66
2022/08/03 06:25:41;;;;;;;17.48;5.72;;;20.20;99.90;;;;;;5057436;28;20652;-67
2022/08/03 06:28:07;;;;;;;18.85;5.45;;;20.30;99.90;;;;;;5064119;28;20098;-67
2022/08/03 06:30:33;;;;;;;19.65;5.93;;;20.20;99.90;;;;;;5062175;28;20045;-68
2022/08/03 06:32:58;;;;;;;17.63;6.28;;;20.20;99.90;;;;;;5071597;28;20040;-68
2022/08/03 06:35:26;;;;;;;20.70;6.80;;;20.20;99.90;;;;;;5051976;28;20033;-67
2022/08/03 06:37:52;;;;;;;18.23;6.22;;;20.20;99.90;;;;;;5054660;28;20047;-66
2022/08/03 06:40:22;;;;;;;17.05;6.28;;;20.20;99.90;;;;;;5067239;28;20041;-68
2022/08/03 06:42:47;;;;;;;23.92;6.80;;;20.20;99.90;;;;;;5066902;28;20041;-67
2022/08/03 06:45:13;;;;;;;18.98;5.65;;;20.20;99.90;;;;;;5065308;28;20113;-68
2022/08/03 06:47:39;;;;;;;24.38;6.55;;;20.20;99.90;;;;;;5049082;28;20127;-69
2022/08/03 06:50:06;;;;;;;18.55;6.20;;;20.30;99.90;;;;;;5069755;28;20380;-68
2022/08/03 06:52:32;;;;;;;18.08;5.85;;;20.20;99.90;;;;;;5068550;28;20044;-66
2022/08/03 06:54:58;;;;;;;20.85;6.43;;;20.20;99.90;;;;;;5062171;28;20505;-68
2022/08/03 06:57:24;;;;;;;23.67;6.55;;;20.30;99.90;;;;;;5047967;28;20044;-67
2022/08/03 06:59:49;;;;;;;19.13;6.45;;;20.50;99.90;;;;;;5070766;28;20094;-68
2022/08/03 07:02:17;;;;;;;23.60;6.70;;;20.40;99.90;;;;;;5070987;28;20036;-68
2022/08/03 07:04:43;;;;;;;24.65;6.72;;;20.50;99.90;;;;;;5069152;28;20055;-66
2022/08/03 07:07:08;;;;;;;17.58;6.70;;;20.50;99.90;;;;;;5070475;28;20044;-68
2022/08/03 07:09:34;;;;;;;22.17;6.20;;;20.60;99.90;;;;;;5068682;28;20131;-66
2022/08/03 07:12:01;;;;;;;21.95;5.70;;;20.50;99.90;;;;;;5056915;28;20499;-66
2022/08/03 07:14:26;;;;;;;19.77;5.50;;;20.60;99.90;;;;;;5073165;28;20044;-67
2022/08/03 07:16:52;;;;;;;22.40;6.25;;;20.70;99.90;;;;;;5071184;28;20380;-66
2022/08/03 07:19:18;;;;;;;25.02;6.40;;;20.80;99.90;;;;;;5070305;28;20127;-67
2022/08/03 07:21:44;;;;;;;22.98;7.60;;;20.80;99.90;;;;;;5058521;28;20084;-65
2022/08/03 07:24:10;;;;;;;19.92;6.40;;;20.80;99.90;;;;;;5062798;28;20051;-66
2022/08/03 07:26:36;;;;;;;25.23;7.45;;;20.70;99.90;;;;;;5066382;28;20033;-66
2022/08/03 07:29:01;;;;;;;23.10;6.78;;;20.70;99.90;;;;;;5055319;28;20439;-66
2022/08/03 07:31:27;;;;;;;22.02;6.65;;;20.80;99.90;;;;;;5058803;28;20036;-68
2022/08/03 07:33:53;;;;;;;20.25;6.88;;;20.70;99.90;;;;;;5061964;28;20040;-65
2022/08/03 07:36:18;;;;;;;23.73;6.95;;;20.80;99.90;;;;;;5074408;28;20218;-66
2022/08/03 07:38:44;;;;;;;23.02;6.80;;;20.70;99.90;;;;;;5059609;28;20048;-67
2022/08/03 07:41:10;;;;;;;23.02;6.78;;;20.90;99.90;;;;;;5050902;28;20117;-68
2022/08/03 07:43:35;;;;;;;20.15;6.30;;;21.10;99.90;;;;;;5064719;28;20033;-68
2022/08/03 07:46:01;;;;;;;24.45;6.50;;;21.10;99.90;;;;;;5065701;28;20445;-68
2022/08/03 07:48:26;;;;;;;23.08;6.03;;;21.20;99.90;;;;;;5064988;28;20123;-69
2022/08/03 07:50:52;;;;;;;28.05;8.32;;;21.30;99.90;;;;;;5071479;28;20124;-67
2022/08/03 07:53:17;;;;;;;26.00;6.30;;;21.40;99.90;;;;;;5060957;28;20183;-70
2022/08/03 07:55:43;;;;;;;19.63;6.50;;;21.40;99.90;;;;;;5069893;28;20104;-71
2022/08/03 07:58:14;;;;;;;26.88;6.95;;;21.60;99.90;;;;;;5069811;28;20044;-67
2022/08/03 08:00:40;;;;;;;26.80;6.57;;;21.70;99.90;;;;;;5061921;28;20054;-67
2022/08/03 08:03:06;;;;;;;27.13;8.52;;;21.70;99.90;;;;;;5069656;28;20442;-68
2022/08/03 08:05:32;;;;;;;26.23;6.97;;;21.90;99.90;;;;;;5071183;28;20075;-65
2022/08/03 08:07:59;;;;;;;20.17;7.07;;;21.80;99.90;;;;;;5061812;28;20080;-66
2022/08/03 08:10:26;;;;;;;28.88;7.22;;;22.00;99.90;;;;;;5062344;28;20049;-67
2022/08/03 08:12:52;;;;;;;25.15;6.63;;;22.00;99.90;;;;;;5063427;28;20036;-66
2022/08/03 08:15:17;;;;;;;26.92;7.07;;;22.00;99.90;;;;;;5087864;28;20090;-66
2022/08/03 08:17:48;;;;;;;26.55;6.28;;;22.10;99.90;;;;;;5070581;28;20194;-66
2022/08/03 08:20:19;;;;;;;28.17;6.72;;;22.20;99.90;;;;;;5064337;28;20131;-67
2022/08/03 08:22:45;;;;;;;22.05;6.18;;;22.20;99.90;;;;;;5067413;28;20092;-67
2022/08/03 08:25:11;;;;;;;25.05;6.75;;;22.30;99.90;;;;;;5064312;28;20102;-65
2022/08/03 08:27:44;;;;;;;25.42;5.95;;;22.40;99.90;;;;;;5084922;28;20055;-67
2022/08/03 08:30:11;;;;;;;20.35;5.45;;;22.50;99.90;;;;;;5069060;28;20048;-67
2022/08/03 08:32:37;;;;;;;19.27;6.10;;;22.60;99.90;;;;;;5059516;28;20193;-68
2022/08/03 08:35:04;;;;;;;21.50;6.32;;;22.70;99.90;;;;;;5059764;28;20135;-67
2022/08/03 08:37:29;;;;;;;21.20;5.70;;;22.80;99.90;;;;;;5064881;28;20102;-67
2022/08/03 08:39:55;;;;;;;22.10;6.15;;;22.90;99.90;;;;;;5057540;28;20045;-66
2022/08/03 08:42:21;;;;;;;19.92;6.90;;;23.00;99.90;;;;;;5061719;28;20036;-65
2022/08/03 08:44:47;;;;;;;22.58;5.93;;;23.10;99.90;;;;;;5067282;28;20048;-67
2022/08/03 08:47:15;;;;;;;21.90;5.75;;;23.10;99.90;;;;;;5069434;28;20051;-66
2022/08/03 08:49:41;;;;;;;22.02;5.43;;;23.20;99.90;;;;;;5066114;28;20080;-68
2022/08/03 08:52:12;;;;;;;27.60;5.72;;;23.30;99.90;;;;;;5087503;28;20063;-65
2022/08/03 08:54:40;;;;;;;19.15;5.45;;;23.40;99.90;;;;;;5068099;28;20510;-66
2022/08/03 08:57:06;;;;;;;16.08;5.65;;;23.50;99.90;;;;;;5070004;28;20124;-65
2022/08/03 08:59:35;;;;;;;20.30;5.60;;;23.60;99.90;;;;;;5070636;28;20518;-66
2022/08/03 09:02:01;;;;;;;21.70;5.50;;;23.60;99.90;;;;;;5070027;28;20127;-68
2022/08/03 09:04:30;;;;;;;16.92;4.82;;;23.70;99.90;;;;;;5061835;28;20195;-67
2022/08/03 09:06:56;;;;;;;20.77;4.78;;;23.80;99.90;;;;;;5053873;28;20440;-66
2022/08/03 09:09:22;;;;;;;19.50;5.80;;;23.90;99.90;;;;;;5054001;28;20047;-66
2022/08/03 09:11:48;;;;;;;18.52;5.00;;;24.00;99.90;;;;;;5053061;28;20049;-66
2022/08/03 09:14:14;;;;;;;29.35;6.90;;;24.00;99.90;;;;;;5053705;28;20127;-66
2022/08/03 09:17:01;;;;;;;19.45;4.78;;;24.10;99.90;;;;;;5055039;28;20579;-68
2022/08/03 09:19:28;;;;;;;21.85;5.75;;;24.20;99.90;;;;;;5072608;28;20059;-66
2022/08/03 09:22:14;;;;;;;14.95;4.82;;;24.20;99.90;;;;;;5077107;28;20515;-64
2022/08/03 09:25:04;;;;;;;19.40;5.13;;;24.30;99.90;;;;;;5053739;28;20040;-65
2022/08/03 09:27:45;;;;;;;14.77;4.25;;;24.30;99.90;;;;;;5052245;28;20083;-66
2022/08/03 09:30:15;;;;;;;22.33;4.80;;;24.40;99.90;;;;;;5066071;28;20430;-66
2022/08/03 09:32:43;;;;;;;22.38;4.57;;;24.50;99.90;;;;;;5072391;28;20044;-67
2022/08/03 09:35:10;;;;;;;19.45;5.25;;;24.60;99.90;;;;;;5071699;28;20044;-66
2022/08/03 09:37:36;;;;;;;24.17;5.70;;;24.70;99.90;;;;;;5072098;28;20067;-66
2022/08/03 09:40:03;;;;;;;17.55;5.53;;;24.80;99.90;;;;;;5071469;28;20078;-66
2022/08/03 09:42:29;;;;;;;14.23;5.10;;;24.90;99.90;;;;;;5056691;28;20048;-67
2022/08/03 09:44:54;;;;;;;12.73;4.90;;;24.90;99.90;;;;;;5037127;28;20040;-65
2022/08/03 09:47:31;;;;;;;21.58;5.35;;;24.90;99.90;;;;;;5067540;28;20048;-66
2022/08/03 09:50:00;;;;;;;23.92;5.13;;;25.10;99.90;;;;;;5071170;28;20059;-65
2022/08/03 09:52:52;;;;;;;21.83;5.05;;;25.20;99.90;;;;;;5071322;28;20082;-66
2022/08/03 09:55:23;;;;;;;19.45;4.63;;;25.30;99.90;;;;;;5070956;28;20048;-67
2022/08/03 09:57:49;;;;;;;17.67;5.27;;;25.40;99.90;;;;;;5071145;28;20051;-66
2022/08/03 10:00:17;;;;;;;16.90;4.78;;;25.50;99.90;;;;;;5071787;28;20040;-66
2022/08/03 10:02:43;;;;;;;19.05;4.55;;;25.50;99.90;;;;;;5070381;28;20477;-67
2022/08/03 10:05:11;;;;;;;22.00;4.32;;;25.60;99.90;;;;;;5072717;28;20484;-67
2022/08/03 10:07:42;;;;;;;19.50;5.53;;;25.60;99.90;;;;;;5068814;28;20087;-66
2022/08/03 10:10:09;;;;;;;22.58;4.47;;;25.60;99.90;;;;;;5071918;28;20044;-66
2022/08/03 10:12:35;;;;;;;19.38;5.05;;;25.70;99.90;;;;;;5071720;28;20079;-68
2022/08/03 10:15:02;;;;;;;22.50;4.95;;;25.80;99.90;;;;;;5070474;28;20075;-65
2022/08/03 10:17:27;;;;;;;19.25;4.95;;;25.80;99.90;;;;;;5072350;28;20078;-66
2022/08/03 10:19:53;;;;;;;16.38;4.55;;;26.00;99.90;;;;;;5071799;28;20609;-66
2022/08/03 10:22:22;;;;;;;22.05;5.28;;;26.00;99.90;;;;;;5070115;28;20086;-66
2022/08/03 10:25:06;;;;;;;22.25;5.07;;;26.10;99.90;;;;;;5067102;28;20044;-65
2022/08/03 10:27:41;;;;;;;22.52;5.20;;;26.10;99.90;;;;;;5067233;28;20097;-66
2022/08/03 10:30:09;;;;;;;20.75;4.93;;;26.20;99.90;;;;;;5070713;28;20045;-65
2022/08/03 10:33:07;;;;;;;23.77;4.93;;;26.20;99.90;;;;;;5072033;28;20076;-66
2022/08/03 10:35:35;;;;;;;25.33;5.28;;;26.40;99.90;;;;;;5048922;28;20561;-66
2022/08/03 10:38:07;;;;;;;21.70;4.93;;;26.30;99.90;;;;;;5072021;28;20047;-68
2022/08/03 10:40:33;;;;;;;20.48;4.88;;;26.50;99.90;;;;;;5069058;28;20044;-68
2022/08/03 10:43:10;;;;;;;21.67;5.13;;;26.50;99.90;;;;;;5064712;28;20048;-66
2022/08/03 10:45:40;;;;;;;21.17;4.85;;;26.50;99.90;;;;;;5061731;28;20487;-65
2022/08/03 10:48:06;;;;;;;25.17;5.20;;;26.50;99.90;;;;;;5056420;28;20489;-67
2022/08/03 10:50:33;;;;;;;23.27;5.07;;;26.60;99.90;;;;;;5056671;28;20048;-67
2022/08/03 10:53:07;;;;;;;25.15;5.13;;;26.60;99.90;;;;;;5064847;28;20170;-65
2022/08/03 10:58:36;;;;;;;20.25;5.40;;;26.80;99.90;;;;;;5076836;28;20083;-66
2022/08/03 11:01:05;;;;;;;24.75;4.93;;;26.80;99.90;;;;;;5057546;28;20040;-66
2022/08/03 11:03:33;;;;;;;20.08;5.38;;;26.80;99.90;;;;;;5058425;28;20087;-66
2022/08/03 11:06:17;;;;;;;20.20;4.75;;;26.90;99.90;;;;;;5057985;28;20037;-66
2022/08/03 11:08:44;;;;;;;26.23;5.93;;;26.90;99.90;;;;;;5083794;28;20041;-64
2022/08/03 11:11:18;;;;;;;22.98;5.07;;;27.00;99.90;;;;;;5067276;28;20483;-65
2022/08/03 11:14:17;;;;;;;23.08;4.85;;;27.00;99.90;;;;;;5063252;28;20127;-66
2022/08/03 11:17:06;;;;;;;25.67;4.32;;;27.00;99.90;;;;;;5064880;28;20131;-65
2022/08/03 11:19:47;;;;;;;22.90;4.95;;;27.00;99.90;;;;;;5063162;28;20044;-66
2022/08/03 11:22:14;;;;;;;19.33;4.40;;;27.20;99.90;;;;;;5064507;28;20060;-68
2022/08/03 11:24:40;;;;;;;19.98;5.10;;;27.30;99.90;;;;;;5068077;28;20426;-67
2022/08/03 11:27:15;;;;;;;25.98;5.53;;;27.40;99.90;;;;;;5067635;28;20059;-66
2022/08/03 11:30:02;;;;;;;18.58;4.50;;;27.40;99.90;;;;;;5068227;28;20506;-66
2022/08/03 11:32:37;;;;;;;27.42;4.90;;;27.30;99.90;;;;;;5067362;28;20049;-65
2022/08/03 11:35:19;;;;;;;23.58;4.68;;;27.00;99.90;;;;;;5059789;28;20129;-67
2022/08/03 11:37:53;;;;;;;23.23;5.22;;;27.00;99.90;;;;;;5038436;28;20551;-66
2022/08/03 11:40:50;;;;;;;24.33;4.82;;;27.00;99.90;;;;;;5056905;28;20051;-68
2022/08/03 11:43:22;;;;;;;18.20;5.25;;;27.00;99.90;;;;;;5039652;28;20499;-67
2022/08/03 11:46:06;;;;;;;;;;;27.10;99.90;;;;;;5050156;28;20392;-66
2022/08/03 11:48:43;;;;;;;23.48;4.68;;;27.10;99.90;;;;;;5051596;28;19984;-68
2022/08/03 11:51:29;;;;;;;22.65;4.95;;;27.20;99.90;;;;;;5072499;28;20037;-66
2022/08/03 11:53:59;;;;;;;22.25;4.93;;;27.40;99.90;;;;;;5072747;28;20148;-67
2022/08/03 11:56:25;;;;;;;21.30;4.68;;;27.30;99.90;;;;;;5052269;28;20041;-68
2022/08/03 11:58:54;;;;;;;24.20;5.22;;;27.30;99.90;;;;;;5054607;28;20029;-64
2022/08/03 12:01:21;;;;;;;16.67;5.32;;;27.40;99.90;;;;;;5064564;28;20055;-67
2022/08/03 12:03:47;;;;;;;27.65;4.93;;;27.40;99.90;;;;;;5067989;28;20036;-68
2022/08/03 12:06:15;;;;;;;20.80;4.90;;;27.40;99.90;;;;;;5061908;28;20040;-67
2022/08/03 12:08:42;;;;;;;13.98;3.90;;;27.50;99.90;;;;;;5061701;28;20044;-67
2022/08/03 12:11:11;;;;;;;19.70;4.93;;;27.60;99.90;;;;;;5059698;28;20450;-67
2022/08/03 12:13:43;;;;;;;15.77;4.57;;;27.60;99.90;;;;;;5049773;28;20045;-66
2022/08/03 12:16:09;;;;;;;20.80;4.30;;;27.60;99.90;;;;;;5067625;28;20051;-69
2022/08/03 12:18:35;;;;;;;16.67;4.15;;;27.70;99.90;;;;;;5054508;28;20124;-65
2022/08/03 12:21:07;;;;;;;22.05;4.53;;;27.70;99.90;;;;;;5069422;28;20477;-67
2022/08/03 12:23:33;;;;;;;17.67;3.85;;;27.80;99.90;;;;;;5058417;28;20399;-67
2022/08/03 12:26:05;;;;;;;20.63;4.50;;;27.90;99.90;;;;;;5061372;28;20049;-66
2022/08/03 12:28:30;;;;;;;16.50;4.15;;;27.90;99.90;;;;;;5062904;28;20049;-67
2022/08/03 12:31:01;;;;;;;20.70;4.38;;;27.80;99.90;;;;;;5065775;28;20043;-65
2022/08/03 12:33:27;;;;;;;16.80;3.85;;;27.70;99.90;;;;;;5065987;28;20321;-66
2022/08/03 12:36:07;;;;;;;18.85;4.25;;;27.80;99.90;;;;;;5063705;28;20051;-68
2022/08/03 12:38:37;;;;;;;18.80;3.97;;;27.80;99.90;;;;;;5052509;28;20033;-67
2022/08/03 12:41:10;;;;;;;17.60;4.18;;;27.80;99.90;;;;;;5052263;28;20033;-66
2022/08/03 12:43:36;;;;;;;16.05;3.75;;;27.80;99.90;;;;;;5070586;28;20144;-68
2022/08/03 12:46:08;;;;;;;19.30;4.30;;;27.80;99.90;;;;;;5062516;28;20127;-67
2022/08/03 12:48:33;;;;;;;;;;;27.80;99.90;;;;;;5063507;28;20380;-66
2022/08/03 12:51:11;;;;;;;16.77;3.80;;;27.90;99.90;;;;;;5073213;28;19921;-65
2022/08/03 12:53:37;;;;;;;18.83;3.80;;;28.00;99.90;;;;;;5071024;28;20044;-67
2022/08/03 12:56:04;;;;;;;19.08;4.90;;;28.00;99.90;;;;;;5075093;28;20036;-66